createdAt,value
2022-08-09T00:01:05.594Z,49.20
2022-08-09T00:04:06.398Z,48.61
2022-08-09T00:06:24.315Z,49.51
2022-08-09T00:08:52.238Z,49.36
2022-08-09T00:11:27.748Z,48.66
2022-08-09T00:14:11.280Z,49.22
2022-08-09T00:16:44.660Z,49.28
2022-08-09T00:19:14.119Z,49.24
2022-08-09T00:21:55.841Z,48.76
2022-08-09T00:24:24.325Z,49.56
2022-08-09T00:26:51.191Z,49.77
2022-08-09T00:29:39.665Z,49.68
2022-08-09T00:32:05.578Z,49.93
2022-08-09T00:34:33.464Z,50.10
2022-08-09T00:37:00.153Z,50.50
2022-08-09T00:40:13.054Z,50.46
2022-08-09T00:44:14.659Z,50.26
2022-08-09T00:44:59.621Z,50.42
2022-08-09T00:47:33.161Z,50.81
2022-08-09T00:50:06.916Z,50.69
2022-08-09T00:52:40.825Z,50.71
2022-08-09T00:55:08.916Z,51.29
2022-08-09T00:57:43.310Z,51.93
2022-08-09T01:00:21.052Z,51.98
2022-08-09T01:03:03.076Z,52.37
2022-08-09T01:05:53.840Z,52.26
2022-08-09T01:08:34.741Z,52.15
2022-08-09T01:11:17.612Z,52.29
2022-08-09T01:13:59.941Z,53.02
2022-08-09T01:16:33.022Z,52.86
2022-08-09T01:19:07.119Z,52.74
2022-08-09T01:21:59.348Z,53.19
2022-08-09T01:24:39.904Z,52.81
2022-08-09T01:27:15.103Z,52.61
2022-08-09T01:29:55.131Z,52.46
2022-08-09T01:32:29.899Z,52.70
2022-08-09T01:35:53.260Z,52.83
2022-08-09T01:38:24.526Z,53.46
2022-08-09T01:41:03.040Z,53.69
2022-08-09T01:43:41.849Z,53.66
2022-08-09T01:46:26.529Z,53.88
2022-08-09T01:49:00.019Z,54.07
2022-08-09T01:51:28.659Z,53.95
2022-08-09T01:54:02.001Z,54.13
2022-08-09T01:56:30.554Z,53.83
2022-08-09T01:59:01.374Z,53.75
2022-08-09T02:01:30.594Z,54.09
2022-08-09T02:04:17.319Z,54.02
2022-08-09T02:07:04.232Z,53.99
2022-08-09T02:24:54.168Z,54.89
2022-08-09T02:27:27.444Z,55.47
2022-08-09T02:30:10.911Z,55.40
2022-08-09T02:32:43.278Z,55.53
2022-08-09T02:35:20.887Z,56.13
2022-08-09T02:37:57.709Z,56.16
2022-08-09T02:40:30.281Z,55.94
2022-08-09T02:43:00.827Z,55.69
2022-08-09T02:45:32.961Z,56.37
2022-08-09T02:48:03.988Z,56.55
2022-08-09T02:50:38.195Z,56.22
2022-08-09T02:53:26.395Z,56.12
2022-08-09T02:55:58.501Z,56.16
2022-08-09T02:58:32.626Z,56.22
2022-08-09T03:01:04.377Z,56.02
2022-08-09T03:04:12.442Z,56.29
2022-08-09T03:06:22.553Z,56.93
2022-08-09T03:08:52.375Z,56.37
2022-08-09T03:12:04.365Z,56.79
2022-08-09T03:14:10.532Z,57.22
2022-08-09T03:16:41.640Z,57.48
2022-08-09T03:19:14.500Z,57.79
2022-08-09T03:21:57.842Z,58.00
2022-08-09T03:24:36.831Z,58.24
2022-08-09T03:27:10.858Z,58.62
2022-08-09T03:29:43.211Z,58.95
2022-08-09T03:32:25.299Z,58.65
2022-08-09T03:34:54.165Z,58.75
2022-08-09T03:37:56.180Z,58.88
2022-08-09T03:40:13.079Z,59.26
2022-08-09T03:42:43.080Z,59.23
2022-08-09T03:45:10.815Z,59.58
2022-08-09T03:47:39.932Z,59.95
2022-08-09T03:50:10.627Z,60.11
2022-08-09T03:52:40.467Z,60.11
2022-08-09T03:55:10.580Z,60.41
2022-08-09T03:57:44.779Z,60.41
2022-08-09T04:00:24.839Z,60.70
2022-08-09T04:02:54.121Z,61.16
2022-08-09T04:05:27.565Z,61.47
2022-08-09T04:07:57.170Z,61.58
2022-08-09T04:10:29.368Z,62.06
2022-08-09T04:13:01.411Z,61.80
2022-08-09T04:16:18.870Z,61.81
2022-08-09T04:18:18.145Z,62.36
2022-08-09T04:20:50.042Z,62.27
2022-08-09T04:23:18.017Z,62.65
2022-08-09T04:25:52.944Z,62.33
2022-08-09T04:28:33.123Z,62.81
2022-08-09T04:31:08.324Z,62.87
2022-08-09T04:33:52.308Z,62.94
2022-08-09T04:36:25.587Z,63.09
2022-08-09T04:38:57.378Z,62.80
2022-08-09T04:41:32.275Z,62.64
2022-08-09T04:44:07.176Z,62.09
2022-08-09T04:46:57.715Z,62.31
2022-08-09T04:49:52.041Z,62.20
2022-08-09T04:52:10.429Z,61.70
2022-08-09T04:54:36.917Z,61.83
2022-08-09T04:57:03.861Z,61.06
2022-08-09T04:59:30.700Z,60.46
2022-08-09T05:01:57.304Z,60.45
2022-08-09T05:04:23.877Z,60.46
2022-08-09T05:06:58.382Z,60.58
2022-08-09T05:09:25.139Z,60.16
2022-08-09T05:12:08.760Z,60.04
2022-08-09T05:14:35.392Z,59.35
2022-08-09T05:17:01.879Z,59.36
2022-08-09T05:19:31.937Z,58.95
2022-08-09T05:22:36.126Z,58.87
2022-08-09T05:25:01.113Z,58.46
2022-08-09T05:27:31.056Z,58.33
2022-08-09T05:29:57.989Z,57.95
2022-08-09T05:32:26.192Z,57.57
2022-08-09T05:34:56.674Z,57.42
2022-08-09T05:37:23.741Z,57.12
2022-08-09T05:39:52.266Z,57.09
2022-08-09T05:42:21.857Z,57.07
2022-08-09T05:44:55.523Z,56.10
2022-08-09T05:47:23.705Z,56.85
2022-08-09T05:50:30.564Z,55.83
2022-08-09T05:52:43.699Z,55.74
2022-08-09T05:55:18.189Z,55.27
2022-08-09T05:57:55.671Z,55.34
2022-08-09T06:00:25.814Z,54.90
2022-08-09T06:02:54.164Z,55.05
2022-08-09T06:05:30.578Z,54.49
2022-08-09T06:08:11.189Z,54.16
2022-08-09T06:10:38.189Z,53.21
2022-08-09T06:13:12.246Z,52.37
2022-08-09T06:15:45.130Z,52.96
2022-08-09T06:18:14.095Z,53.26
2022-08-09T06:20:42.700Z,52.08
2022-08-09T06:23:12.085Z,51.96
2022-08-09T06:25:43.228Z,51.71
2022-08-09T06:28:09.982Z,51.50
2022-08-09T06:30:36.821Z,53.21
2022-08-09T06:33:30.368Z,52.92
2022-08-09T06:35:56.823Z,52.06
2022-08-09T06:38:37.213Z,52.07
2022-08-09T06:41:18.116Z,51.78
2022-08-09T06:43:47.428Z,50.32
2022-08-09T06:46:39.835Z,50.21
2022-08-09T06:49:01.227Z,50.18
2022-08-09T06:51:28.127Z,48.51
2022-08-09T06:53:55.101Z,49.18
2022-08-09T06:56:21.576Z,48.17
2022-08-09T07:00:51.713Z,47.97
2022-08-09T07:01:54.546Z,46.78
2022-08-09T07:04:25.000Z,45.34
2022-08-09T07:06:59.995Z,43.14
2022-08-09T07:09:55.865Z,44.18
2022-08-09T07:12:18.211Z,41.25
2022-08-09T07:14:51.430Z,44.00
2022-08-09T07:17:20.170Z,43.78
2022-08-09T07:19:55.215Z,44.33
2022-08-09T07:22:34.782Z,43.12
2022-08-09T07:25:09.727Z,42.39
2022-08-09T07:27:42.579Z,42.46
2022-08-09T07:30:19.600Z,40.65
2022-08-09T07:32:48.460Z,40.49
2022-08-09T07:35:18.138Z,39.71
2022-08-09T07:37:46.242Z,37.79
2022-08-09T07:40:20.126Z,39.88
2022-08-09T07:42:58.465Z,39.81
2022-08-09T07:45:39.709Z,39.33
2022-08-09T07:48:25.322Z,37.61
2022-08-09T07:51:10.215Z,39.20
2022-08-09T07:54:05.005Z,39.27
2022-08-09T07:56:34.372Z,38.09
2022-08-09T07:59:04.429Z,37.53
2022-08-09T08:01:39.700Z,38.39
2022-08-09T08:04:10.693Z,37.66
2022-08-09T08:06:37.367Z,36.76
2022-08-09T08:09:36.396Z,36.04
2022-08-09T08:12:27.607Z,36.92
2022-08-09T08:14:55.351Z,34.63
2022-08-09T08:17:34.985Z,33.57
2022-08-09T08:20:13.050Z,36.09
2022-08-09T08:22:40.687Z,34.37
2022-08-09T08:25:09.482Z,33.99
2022-08-09T08:27:41.193Z,33.30
2022-08-09T08:30:11.375Z,34.15
2022-08-09T08:32:52.236Z,33.66
2022-08-09T08:35:22.544Z,33.45
2022-08-09T08:38:01.890Z,33.16
2022-08-09T08:40:36.032Z,32.28
2022-08-09T08:43:08.832Z,30.28
2022-08-09T08:45:53.573Z,30.87
2022-08-09T08:48:32.167Z,28.91
2022-08-09T08:50:59.970Z,23.55
2022-08-09T08:53:32.298Z,23.26
2022-08-09T08:56:05.463Z,23.74
2022-08-09T08:58:33.473Z,23.31
2022-08-09T09:01:08.940Z,22.92
2022-08-09T09:03:49.389Z,22.88
2022-08-09T09:06:19.376Z,22.61
2022-08-09T09:08:52.593Z,22.07
2022-08-09T09:11:20.356Z,21.90
2022-08-09T09:13:56.829Z,22.22
2022-08-09T09:16:34.190Z,22.75
2022-08-09T09:22:00.760Z,21.38
2022-08-09T09:24:33.476Z,21.08
2022-08-09T09:27:02.181Z,21.02
2022-08-09T09:29:45.702Z,21.54
2022-08-09T09:32:34.175Z,21.29
2022-08-09T09:35:09.276Z,20.94
2022-08-09T09:37:40.500Z,21.12
2022-08-09T09:40:09.352Z,20.85
2022-08-09T09:42:36.233Z,20.81
2022-08-09T09:45:08.338Z,19.91
2022-08-09T09:47:42.271Z,20.87
2022-08-09T09:50:23.196Z,20.67
2022-08-09T09:52:53.963Z,20.32
2022-08-09T09:55:28.249Z,20.16
2022-08-09T09:58:15.874Z,20.14
2022-08-09T10:00:54.520Z,20.77
2022-08-09T10:03:58.084Z,20.59
2022-08-09T10:06:32.309Z,19.91
2022-08-09T10:09:02.928Z,20.80
2022-08-09T10:12:04.520Z,20.40
2022-08-09T10:14:31.777Z,19.55
2022-08-09T10:17:40.473Z,19.58
2022-08-09T10:19:57.019Z,20.25
2022-08-09T10:22:35.408Z,20.40
2022-08-09T10:25:12.205Z,20.76
2022-08-09T10:27:57.686Z,20.69
2022-08-09T10:34:05.149Z,20.77
2022-08-09T10:36:02.354Z,20.50
2022-08-09T10:38:34.350Z,20.54
2022-08-09T10:41:17.773Z,20.28
2022-08-09T10:43:59.500Z,20.29
2022-08-09T10:46:33.810Z,20.35
2022-08-09T10:49:12.340Z,19.27
2022-08-09T10:52:03.516Z,20.03
2022-08-09T10:54:30.894Z,19.39
2022-08-09T10:57:09.719Z,19.58
2022-08-09T10:59:43.116Z,19.58
2022-08-09T11:03:16.003Z,18.77
2022-08-09T11:05:30.069Z,19.42
2022-08-09T11:08:36.132Z,19.65
2022-08-09T11:11:10.388Z,19.62
2022-08-09T11:13:50.553Z,19.98
2022-08-09T11:16:37.228Z,19.72
2022-08-09T11:19:07.993Z,20.34
2022-08-09T11:21:57.115Z,19.73
2022-08-09T11:25:04.663Z,20.06
2022-08-09T11:28:04.519Z,19.56
2022-08-09T11:30:33.753Z,20.04
2022-08-09T11:33:19.062Z,19.37
2022-08-09T11:35:50.233Z,19.58
2022-08-09T11:38:32.531Z,19.39
2022-08-09T11:41:13.650Z,19.37
2022-08-09T11:43:43.072Z,19.55
2022-08-09T11:46:10.368Z,20.18
2022-08-09T11:48:57.260Z,20.02
2022-08-09T11:52:56.898Z,19.67
2022-08-09T11:54:27.471Z,19.82
2022-08-09T11:56:54.797Z,19.97
2022-08-09T11:59:30.552Z,20.00
2022-08-09T12:02:18.044Z,20.35
2022-08-09T12:04:54.583Z,18.99
2022-08-09T12:07:41.093Z,19.46
2022-08-09T12:10:14.107Z,19.44
2022-08-09T12:12:57.424Z,18.70
2022-08-09T12:15:50.218Z,19.73
2022-08-09T12:18:30.021Z,19.59
2022-08-09T12:21:00.685Z,19.74
2022-08-09T12:23:56.539Z,19.17
2022-08-09T12:26:25.505Z,19.15
2022-08-09T12:29:13.813Z,18.95
2022-08-09T12:32:02.278Z,19.37
2022-08-09T12:34:37.904Z,20.76
2022-08-09T12:37:21.647Z,19.87
2022-08-09T12:40:05.835Z,20.23
2022-08-09T12:42:33.698Z,20.55
2022-08-09T12:45:00.863Z,20.12
2022-08-09T12:47:37.099Z,20.37
2022-08-09T12:50:17.220Z,20.23
2022-08-09T12:53:08.812Z,20.00
2022-08-09T12:56:16.166Z,20.37
2022-08-09T12:58:28.012Z,19.26
2022-08-09T13:00:56.208Z,20.73
2022-08-09T13:03:54.067Z,20.31
2022-08-09T13:06:36.827Z,19.95
2022-08-09T13:09:26.810Z,20.52
2022-08-09T13:12:04.911Z,19.98
2022-08-09T13:14:41.146Z,19.95
2022-08-09T13:17:44.234Z,19.96
2022-08-09T13:20:14.022Z,20.51
2022-08-09T13:23:05.449Z,20.17
2022-08-09T13:25:52.973Z,20.85
2022-08-09T13:28:34.430Z,21.36
2022-08-09T13:32:15.269Z,21.24
2022-08-09T13:33:54.991Z,21.19
2022-08-09T13:36:39.107Z,20.60
2022-08-09T13:41:46.476Z,20.83
2022-08-09T13:42:02.600Z,20.74
2022-08-09T13:44:29.933Z,20.56
2022-08-09T13:47:26.789Z,20.45
2022-08-09T13:49:58.203Z,20.40
2022-08-09T13:52:29.842Z,21.57
2022-08-09T13:55:00.668Z,20.51
2022-08-09T13:57:36.846Z,20.71
2022-08-09T14:00:12.815Z,21.23
2022-08-09T14:02:42.460Z,20.53
2022-08-09T14:06:00.618Z,20.40
2022-08-09T14:20:30.297Z,21.46
2022-08-09T14:22:57.406Z,21.30
2022-08-09T14:25:24.356Z,20.53
2022-08-09T14:27:58.724Z,20.51
2022-08-09T14:30:36.256Z,20.42
2022-08-09T14:33:11.361Z,20.57
2022-08-09T14:35:52.161Z,20.81
2022-08-09T14:38:19.769Z,20.76
2022-08-09T14:41:00.939Z,20.47
2022-08-09T14:43:47.820Z,20.35
2022-08-09T14:46:54.602Z,20.27
2022-08-09T14:49:03.248Z,20.19
2022-08-09T14:51:30.271Z,20.48
2022-08-09T14:54:09.375Z,20.25
2022-08-09T14:56:35.877Z,19.81
2022-08-09T14:59:22.384Z,19.43
2022-08-09T15:01:50.309Z,19.47
2022-08-09T15:04:16.765Z,19.45
2022-08-09T15:06:43.339Z,19.61
2022-08-09T15:09:16.712Z,19.08
2022-08-09T15:12:04.458Z,18.73
2022-08-09T15:14:33.997Z,18.82
2022-08-09T15:17:00.617Z,18.23
2022-08-09T15:19:36.222Z,18.59
2022-08-09T15:22:03.437Z,18.00
2022-08-09T15:24:29.984Z,18.04
2022-08-09T15:26:57.740Z,18.12
2022-08-09T15:30:58.328Z,17.92
2022-08-09T15:32:29.944Z,18.00
2022-08-09T15:35:00.702Z,17.46
2022-08-09T15:37:56.194Z,17.64
2022-08-09T15:40:31.971Z,17.05
2022-08-09T15:42:59.798Z,17.43
2022-08-09T15:45:29.420Z,17.17
2022-08-09T15:48:06.560Z,16.97
2022-08-09T15:50:48.303Z,16.85
2022-08-09T15:53:18.805Z,17.19
2022-08-09T15:56:21.735Z,16.73
2022-08-09T15:58:48.415Z,16.28
2022-08-09T16:01:17.943Z,17.11
2022-08-09T16:03:44.458Z,16.59
2022-08-09T16:06:29.298Z,16.36
2022-08-09T16:08:59.248Z,16.76
2022-08-09T16:11:29.992Z,16.35
2022-08-09T16:14:03.664Z,16.35
2022-08-09T16:16:36.870Z,16.64
2022-08-09T16:19:07.758Z,16.64
2022-08-09T16:21:38.243Z,16.78
2022-08-09T16:24:05.978Z,16.94
2022-08-09T16:26:39.716Z,16.95
2022-08-09T16:29:12.939Z,18.07
2022-08-09T16:32:18.617Z,17.34
2022-08-09T16:34:53.405Z,17.86
2022-08-09T16:37:56.021Z,18.20
2022-08-09T16:40:08.960Z,18.33
2022-08-09T16:42:36.551Z,18.32
2022-08-09T16:45:06.225Z,18.46
2022-08-09T16:48:40.194Z,19.12
2022-08-09T16:50:31.434Z,19.09
2022-08-09T16:53:01.312Z,19.42
2022-08-09T16:55:31.466Z,19.62
2022-08-09T16:58:16.485Z,19.96
2022-08-09T17:00:43.264Z,20.17
2022-08-09T17:03:20.960Z,20.72
2022-08-09T17:06:08.404Z,20.85
2022-08-09T17:09:03.106Z,21.98
2022-08-09T17:11:40.608Z,22.47
2022-08-09T17:14:25.467Z,22.51
2022-08-09T17:16:57.020Z,22.46
2022-08-09T17:19:27.607Z,23.70
2022-08-09T17:22:14.352Z,23.10
2022-08-09T17:24:41.480Z,23.80
2022-08-09T17:27:15.223Z,23.99
2022-08-09T17:29:45.565Z,24.43
2022-08-09T17:32:15.695Z,24.17
2022-08-09T17:35:00.827Z,24.87
2022-08-09T17:37:29.682Z,25.58
2022-08-09T17:39:58.147Z,25.04
2022-08-09T17:42:41.302Z,25.40
2022-08-09T17:45:16.061Z,25.70
2022-08-09T17:47:54.712Z,26.27
2022-08-09T17:50:36.494Z,26.46
2022-08-09T17:53:19.489Z,26.46
2022-08-09T17:55:52.018Z,26.50
2022-08-09T17:58:26.691Z,26.30
2022-08-09T18:00:54.969Z,26.47
2022-08-09T18:03:24.002Z,26.51
2022-08-09T18:05:52.955Z,26.22
2022-08-09T18:08:22.167Z,26.64
2022-08-09T18:11:00.860Z,26.50
2022-08-09T18:13:43.073Z,26.84
2022-08-09T18:16:17.273Z,27.04
2022-08-09T18:18:57.789Z,26.83
2022-08-09T18:21:26.060Z,27.16
2022-08-09T18:24:10.037Z,27.65
2022-08-09T18:26:45.935Z,28.19
2022-08-09T18:30:39.571Z,27.75
2022-08-09T18:32:00.506Z,28.02
2022-08-09T18:34:31.588Z,28.37
2022-08-09T18:36:58.576Z,28.93
2022-08-09T18:39:32.591Z,28.79
2022-08-09T18:42:05.264Z,29.29
2022-08-09T18:44:35.159Z,30.65
2022-08-09T18:47:07.795Z,30.67
2022-08-09T18:49:41.549Z,31.97
2022-08-09T18:52:11.725Z,31.94
2022-08-09T18:54:39.492Z,33.17
2022-08-09T18:57:16.455Z,32.40
2022-08-09T18:59:48.998Z,34.11
2022-08-09T19:02:16.485Z,34.12
2022-08-09T19:04:47.271Z,35.40
2022-08-09T19:07:16.510Z,35.57
2022-08-09T19:10:14.043Z,34.29
2022-08-09T19:12:31.759Z,34.27
2022-08-09T19:15:00.400Z,34.52
2022-08-09T19:17:31.225Z,34.75
2022-08-09T19:20:16.882Z,34.57
2022-08-09T19:22:50.316Z,34.90
2022-08-09T19:25:41.269Z,35.03
2022-08-09T19:28:08.431Z,35.51
2022-08-09T19:30:44.431Z,35.03
2022-08-09T19:33:19.568Z,35.31
2022-08-09T19:35:57.021Z,34.36
2022-08-09T19:38:24.281Z,35.24
2022-08-09T19:40:50.871Z,35.51
2022-08-09T19:43:58.077Z,36.03
2022-08-09T19:46:08.417Z,36.04
2022-08-09T19:49:02.182Z,36.74
2022-08-09T19:51:30.963Z,36.73
2022-08-09T19:53:59.636Z,37.42
2022-08-09T19:56:29.012Z,37.60
2022-08-09T19:59:33.351Z,37.29
2022-08-09T20:01:53.161Z,37.12
2022-08-09T20:04:37.624Z,37.48
2022-08-09T20:07:20.883Z,38.02
2022-08-09T20:09:48.788Z,38.60
2022-08-09T20:12:22.330Z,38.32
2022-08-09T20:14:56.882Z,39.57
2022-08-09T20:17:23.333Z,39.86
2022-08-09T20:19:54.743Z,39.94
2022-08-09T20:22:31.915Z,40.01
2022-08-09T20:24:59.288Z,39.99
2022-08-09T20:27:29.296Z,40.68
2022-08-09T20:29:57.219Z,40.18
2022-08-09T20:32:30.394Z,40.74
2022-08-09T20:35:00.057Z,40.88
2022-08-09T20:38:18.624Z,41.85
2022-08-09T20:40:24.762Z,41.59
2022-08-09T20:43:00.246Z,40.03
2022-08-09T20:45:59.170Z,40.59
2022-08-09T20:48:31.011Z,40.80
2022-08-09T20:50:58.582Z,40.91
2022-08-09T20:53:36.372Z,41.41
2022-08-09T20:56:05.427Z,40.56
2022-08-09T20:58:33.175Z,41.19
2022-08-09T21:01:32.314Z,41.39
2022-08-09T21:04:08.100Z,41.67
2022-08-09T21:06:41.270Z,41.37
2022-08-09T21:09:11.733Z,40.66
2022-08-09T21:14:26.753Z,41.74
2022-08-09T21:16:57.511Z,42.36
2022-08-09T21:20:18.395Z,42.78
2022-08-09T21:22:38.532Z,43.05
2022-08-09T21:25:18.569Z,43.28
2022-08-09T21:27:52.609Z,43.37
2022-08-09T21:30:22.340Z,42.47
2022-08-09T21:32:49.785Z,43.75
2022-08-09T21:35:16.886Z,44.29
2022-08-09T21:37:59.557Z,42.55
2022-08-09T21:40:30.247Z,42.80
2022-08-09T21:43:01.026Z,42.00
2022-08-09T21:45:27.997Z,42.76
2022-08-09T21:47:54.440Z,43.09
2022-08-09T21:50:35.829Z,43.36
2022-08-09T21:53:24.038Z,43.82
2022-08-09T21:55:54.593Z,42.83
2022-08-09T21:58:21.227Z,41.43
2022-08-09T22:00:57.500Z,41.73
2022-08-09T22:03:29.407Z,40.73
2022-08-09T22:05:57.916Z,42.06
2022-08-09T22:08:27.945Z,40.99
2022-08-09T22:11:50.136Z,41.44
2022-08-09T22:13:43.408Z,42.68
2022-08-09T22:16:11.585Z,42.34
2022-08-09T22:18:53.481Z,41.69
2022-08-09T22:21:45.044Z,41.95
2022-08-09T22:24:17.320Z,41.30
2022-08-09T22:26:51.848Z,41.76
2022-08-09T22:29:18.985Z,42.73
2022-08-09T22:31:56.977Z,41.23
2022-08-09T22:34:27.889Z,40.95
2022-08-09T22:36:56.423Z,41.84
2022-08-09T22:39:55.864Z,42.73
2022-08-09T22:42:23.247Z,42.83
2022-08-09T22:48:05.152Z,42.92
2022-08-09T22:48:10.309Z,42.91
2022-08-09T22:50:29.704Z,43.16
2022-08-09T22:52:57.844Z,44.28
2022-08-09T22:55:39.344Z,44.34
2022-08-09T22:58:20.411Z,44.86
2022-08-09T23:01:03.735Z,44.73
2022-08-09T23:04:03.379Z,45.21
2022-08-09T23:06:30.098Z,44.93
2022-08-09T23:09:06.893Z,45.08
2022-08-09T23:11:33.453Z,45.45
2022-08-09T23:13:59.904Z,46.33
2022-08-09T23:16:26.356Z,47.20
2022-08-09T23:18:52.808Z,47.11
2022-08-09T23:21:24.589Z,47.66
2022-08-09T23:24:01.449Z,48.02
2022-08-09T23:26:34.846Z,47.58
2022-08-09T23:29:01.451Z,48.30
2022-08-09T23:31:28.240Z,48.67
2022-08-09T23:33:54.760Z,49.02
2022-08-09T23:36:21.239Z,48.91
2022-08-09T23:38:48.966Z,49.47
2022-08-09T23:41:28.565Z,49.68
2022-08-09T23:43:59.779Z,50.50
2022-08-09T23:46:28.164Z,49.85
2022-08-09T23:48:54.877Z,48.65
2022-08-09T23:51:21.659Z,48.41
2022-08-09T23:53:49.561Z,48.95
2022-08-09T23:56:18.891Z,49.66
2022-08-09T23:59:05.685Z,50.16
